Time;durP1;ratioP1;P1;durP2;ratioP2;P2;SDS_P1;SDS_P2;PMS_P1;PMS_P2;Temp;Humidity;BMP_temperature;BMP_pressure;BME280_temperature;BME280_humidity;BME280_pressure;Samples;Min_cycle;Max_cycle;Signal;HPM_P1;HPM_P2
2022/01/09 00:01:33;;;;;;;37.65;26.92;;;5.90;64.50;;;;;;5053613;28;20040;-77
2022/01/09 00:03:58;;;;;;;36.38;25.13;;;5.90;63.70;;;;;;5053142;28;20037;-78
2022/01/09 00:06:24;;;;;;;36.85;24.98;;;5.80;64.00;;;;;;5052562;28;20484;-77
2022/01/09 00:08:50;;;;;;;39.35;25.77;;;5.90;64.00;;;;;;5053167;28;20411;-77
2022/01/09 00:11:18;;;;;;;38.35;26.63;;;5.90;64.00;;;;;;5052765;28;20392;-77
2022/01/09 00:13:45;;;;;;;41.28;27.92;;;5.90;63.60;;;;;;5053076;28;20033;-77
2022/01/09 00:16:10;;;;;;;39.42;28.67;;;5.80;63.40;;;;;;5053060;28;20029;-77
2022/01/09 00:18:36;;;;;;;42.60;27.33;;;5.80;63.50;;;;;;5052694;28;20094;-77
2022/01/09 00:21:06;;;;;;;37.55;26.35;;;5.80;63.80;;;;;;5052459;28;20412;-77
2022/01/09 00:23:33;;;;;;;38.60;26.42;;;5.70;63.80;;;;;;5052449;28;20029;-77
2022/01/09 00:25:59;;;;;;;37.03;25.38;;;5.70;63.80;;;;;;5052932;28;20382;-77
2022/01/09 00:28:25;;;;;;;33.67;23.58;;;5.70;64.10;;;;;;5052207;28;20056;-77
2022/01/09 00:30:51;;;;;;;35.22;24.17;;;5.70;64.20;;;;;;5050926;28;20041;-77
2022/01/09 00:33:21;;;;;;;33.38;24.20;;;5.70;64.20;;;;;;5051321;28;20033;-77
2022/01/09 00:35:47;;;;;;;36.78;24.65;;;5.70;64.30;;;;;;5052989;28;20037;-77
2022/01/09 00:38:13;;;;;;;32.95;23.08;;;5.70;64.10;;;;;;5034284;28;20041;-77
2022/01/09 00:40:39;;;;;;;38.80;23.90;;;5.70;64.00;;;;;;5052517;28;20044;-78
2022/01/09 00:43:08;;;;;;;41.33;26.77;;;5.70;64.00;;;;;;5052057;28;20424;-78
2022/01/09 00:45:35;;;;;;;33.25;22.83;;;5.60;63.30;;;;;;5023292;28;20045;-76
2022/01/09 00:48:00;;;;;;;31.65;22.25;;;5.60;63.60;;;;;;5043543;28;20034;-78
2022/01/09 00:50:26;;;;;;;34.60;23.42;;;5.60;63.60;;;;;;5028649;28;20520;-78
2022/01/09 00:52:52;;;;;;;36.67;24.85;;;5.60;63.60;;;;;;5047565;28;20108;-77
2022/01/09 00:55:18;;;;;;;38.47;25.10;;;5.50;63.10;;;;;;5033822;28;20036;-79
2022/01/09 00:57:44;;;;;;;38.22;26.10;;;5.40;63.70;;;;;;5052615;28;20033;-79
2022/01/09 01:00:11;;;;;;;38.97;26.63;;;5.30;64.00;;;;;;5052265;28;20052;-79
2022/01/09 01:02:37;;;;;;;34.70;25.30;;;4.90;64.70;;;;;;5048996;28;20040;-79
2022/01/09 01:05:04;;;;;;;44.53;29.52;;;4.90;65.00;;;;;;5051717;28;20524;-79
2022/01/09 01:07:30;;;;;;;40.40;26.45;;;4.70;65.60;;;;;;5050960;28;20489;-79
2022/01/09 01:09:57;;;;;;;41.42;27.38;;;4.70;65.60;;;;;;5034465;28;20040;-79
2022/01/09 01:12:32;;;;;;;40.30;24.00;;;4.70;65.80;;;;;;5051596;28;20060;-78
2022/01/09 01:14:58;;;;;;;33.72;22.88;;;4.70;65.50;;;;;;5052070;28;20094;-78
2022/01/09 01:17:24;;;;;;;38.20;24.30;;;4.80;65.40;;;;;;5034381;28;20041;-78
2022/01/09 01:19:51;;;;;;;32.72;22.73;;;4.80;65.70;;;;;;5034568;28;20052;-77
2022/01/09 01:22:17;;;;;;;37.40;25.33;;;4.70;65.80;;;;;;5033084;28;20049;-78
2022/01/09 01:24:44;;;;;;;31.63;20.75;;;4.70;65.90;;;;;;5051531;28;20044;-78
2022/01/09 01:27:10;;;;;;;31.35;23.05;;;4.70;65.70;;;;;;5031458;28;20056;-77
2022/01/09 01:29:37;;;;;;;35.45;23.23;;;4.70;65.80;;;;;;5051876;28;20041;-77
2022/01/09 01:32:03;;;;;;;30.85;22.00;;;4.80;65.70;;;;;;5051152;28;20130;-78
2022/01/09 01:34:29;;;;;;;34.20;22.08;;;4.90;65.80;;;;;;5051801;28;20060;-78
2022/01/09 01:36:54;;;;;;;32.78;22.40;;;5.00;65.70;;;;;;5050605;28;20138;-78
2022/01/09 01:39:20;;;;;;;32.42;22.85;;;5.00;65.60;;;;;;5028594;28;20040;-79
2022/01/09 01:41:46;;;;;;;34.83;22.95;;;5.00;65.50;;;;;;5055385;28;20509;-79
2022/01/09 01:44:13;;;;;;;32.83;22.25;;;5.00;65.60;;;;;;5049400;28;20124;-78
2022/01/09 01:46:39;;;;;;;35.47;22.95;;;5.00;65.70;;;;;;5036524;28;20040;-78
2022/01/09 01:49:06;;;;;;;32.72;22.33;;;4.90;65.90;;;;;;5050155;28;20449;-78
2022/01/09 01:51:35;;;;;;;34.65;24.27;;;4.90;66.00;;;;;;5048126;28;20041;-78
2022/01/09 01:54:02;;;;;;;33.10;22.13;;;4.90;66.20;;;;;;5037909;28;20052;-77
2022/01/09 01:56:28;;;;;;;31.38;21.52;;;4.90;66.20;;;;;;5055293;28;20078;-78
2022/01/09 01:58:54;;;;;;;34.13;23.83;;;4.90;66.10;;;;;;5037526;28;20334;-79
2022/01/09 02:01:20;;;;;;;33.78;22.30;;;4.90;66.30;;;;;;5038074;28;20118;-79
2022/01/09 02:03:46;;;;;;;33.63;22.20;;;4.80;66.40;;;;;;5055977;28;20041;-79
2022/01/09 02:06:16;;;;;;;32.35;22.83;;;4.80;66.50;;;;;;5037130;28;20044;-79
2022/01/09 02:08:43;;;;;;;30.25;21.33;;;4.80;66.70;;;;;;5055910;28;20111;-78
2022/01/09 02:11:12;;;;;;;33.28;21.48;;;4.80;66.70;;;;;;5049815;28;20084;-79
2022/01/09 02:13:43;;;;;;;32.13;21.40;;;4.80;66.70;;;;;;5031950;28;20147;-79
2022/01/09 02:16:16;;;;;;;32.65;21.65;;;4.80;66.50;;;;;;5037328;28;20041;-79
2022/01/09 02:18:43;;;;;;;33.20;22.92;;;4.80;66.50;;;;;;5044014;28;20115;-79
2022/01/09 02:21:10;;;;;;;34.60;22.58;;;4.80;66.40;;;;;;5054415;28;20037;-79
2022/01/09 02:23:38;;;;;;;34.35;22.88;;;4.90;66.30;;;;;;5055104;28;20524;-78
2022/01/09 02:26:04;;;;;;;29.83;22.05;;;4.90;66.30;;;;;;5034583;28;20041;-78
2022/01/09 02:28:29;;;;;;;35.22;24.25;;;4.80;66.30;;;;;;5055678;28;20040;-79
2022/01/09 02:30:55;;;;;;;32.47;21.95;;;4.80;66.40;;;;;;5054946;28;20133;-78
2022/01/09 02:33:21;;;;;;;34.35;22.80;;;4.80;66.50;;;;;;5051957;28;20135;-78
2022/01/09 02:35:51;;;;;;;32.42;22.70;;;4.80;66.60;;;;;;5055696;28;20322;-79
2022/01/09 02:38:18;;;;;;;36.58;25.20;;;4.80;66.70;;;;;;5054744;28;20496;-79
2022/01/09 02:40:48;;;;;;;34.22;21.70;;;4.80;66.70;;;;;;5054699;28;20048;-79
2022/01/09 02:43:14;;;;;;;32.10;22.00;;;4.80;67.00;;;;;;5052491;28;20047;-79
2022/01/09 02:45:40;;;;;;;31.92;22.40;;;4.80;66.90;;;;;;5048454;28;20369;-79
2022/01/09 02:48:08;;;;;;;32.28;20.88;;;4.80;66.80;;;;;;5054148;28;20139;-79
2022/01/09 02:50:42;;;;;;;33.40;22.52;;;4.80;66.70;;;;;;5054517;28;20044;-79
2022/01/09 02:53:17;;;;;;;32.92;21.88;;;4.80;66.50;;;;;;5051660;28;20079;-79
2022/01/09 02:55:43;;;;;;;33.45;20.88;;;4.60;66.50;;;;;;5034013;28;20041;-80
2022/01/09 02:58:09;;;;;;;30.80;19.25;;;4.50;67.10;;;;;;5037277;28;20045;-79
2022/01/09 03:00:39;;;;;;;30.58;20.85;;;4.50;67.30;;;;;;5054175;28;20460;-79
2022/01/09 03:03:05;;;;;;;28.67;20.27;;;4.50;67.30;;;;;;5054236;28;20033;-80
2022/01/09 03:05:31;;;;;;;29.45;19.25;;;4.40;68.10;;;;;;5053830;28;20090;-79
2022/01/09 03:07:58;;;;;;;35.88;22.75;;;4.40;67.80;;;;;;5054517;28;20037;-80
2022/01/09 03:10:24;;;;;;;29.35;19.77;;;4.40;68.70;;;;;;5036570;28;20045;-79
2022/01/09 03:12:53;;;;;;;31.38;21.02;;;4.50;67.90;;;;;;5054413;28;20025;-79
2022/01/09 03:15:19;;;;;;;32.92;21.45;;;4.50;67.70;;;;;;5053737;28;20041;-79
2022/01/09 03:17:45;;;;;;;30.63;20.73;;;4.60;67.60;;;;;;5054476;28;20338;-80
2022/01/09 03:20:14;;;;;;;29.30;20.23;;;4.70;67.50;;;;;;5035448;28;20433;-81
2022/01/09 03:22:40;;;;;;;34.47;22.30;;;4.70;67.30;;;;;;5054167;28;20115;-79
2022/01/09 03:25:06;;;;;;;31.65;21.67;;;4.80;67.10;;;;;;5053402;28;20135;-79
2022/01/09 03:27:32;;;;;;;31.40;21.05;;;4.80;67.20;;;;;;5053564;28;20025;-79
2022/01/09 03:29:59;;;;;;;32.70;22.27;;;4.80;67.30;;;;;;5054294;28;20123;-79
2022/01/09 03:32:25;;;;;;;30.48;21.42;;;4.90;67.50;;;;;;5053061;28;20032;-79
2022/01/09 03:34:50;;;;;;;31.50;21.65;;;4.90;67.40;;;;;;5053774;28;20037;-79
2022/01/09 03:37:16;;;;;;;31.15;22.02;;;4.90;67.00;;;;;;5053672;28;20041;-79
2022/01/09 03:39:42;;;;;;;31.75;21.90;;;4.90;66.90;;;;;;5052949;28;20112;-79
2022/01/09 03:42:07;;;;;;;33.28;22.30;;;4.90;66.90;;;;;;5052791;28;20033;-79
2022/01/09 03:44:33;;;;;;;30.02;21.17;;;4.90;66.90;;;;;;5052533;28;20109;-79
2022/01/09 03:46:59;;;;;;;31.45;21.55;;;4.90;67.50;;;;;;5053792;28;20087;-79
2022/01/09 03:49:24;;;;;;;32.55;21.52;;;4.90;67.00;;;;;;5053140;28;20044;-79
2022/01/09 03:51:52;;;;;;;29.27;20.65;;;4.90;67.00;;;;;;5053925;28;20102;-80
2022/01/09 03:54:20;;;;;;;31.45;20.98;;;5.00;66.90;;;;;;5053995;28;20126;-80
2022/01/09 03:56:46;;;;;;;29.45;20.75;;;5.00;67.10;;;;;;5046723;28;20171;-79
2022/01/09 03:59:12;;;;;;;31.85;21.75;;;5.00;67.10;;;;;;5053040;28;20160;-79
2022/01/09 04:01:37;;;;;;;29.25;21.23;;;5.00;67.00;;;;;;5053910;28;20036;-78
2022/01/09 04:04:04;;;;;;;29.92;20.30;;;5.00;67.10;;;;;;5052478;28;20037;-79
2022/01/09 04:06:30;;;;;;;32.28;22.25;;;5.00;67.20;;;;;;5047610;28;20068;-79
2022/01/09 04:08:57;;;;;;;31.08;21.23;;;5.10;67.30;;;;;;5046320;28;20076;-79
2022/01/09 04:11:28;;;;;;;32.83;21.70;;;5.10;67.30;;;;;;5052559;28;20428;-78
2022/01/09 04:13:54;;;;;;;29.00;21.02;;;5.10;67.20;;;;;;5053025;28;20068;-80
2022/01/09 04:16:20;;;;;;;27.20;18.90;;;5.10;67.20;;;;;;5053107;28;20040;-79
2022/01/09 04:18:46;;;;;;;29.00;20.15;;;5.10;67.10;;;;;;5052673;28;20037;-78
2022/01/09 04:21:12;;;;;;;30.42;19.92;;;5.10;67.10;;;;;;5052575;28;20036;-78
2022/01/09 04:23:38;;;;;;;29.63;19.40;;;5.10;67.20;;;;;;5052934;28;20029;-78
2022/01/09 04:26:04;;;;;;;29.27;19.55;;;5.10;67.10;;;;;;5048711;28;20033;-78
2022/01/09 04:28:30;;;;;;;26.98;18.63;;;5.10;66.90;;;;;;5052332;28;20388;-78
2022/01/09 04:30:56;;;;;;;25.65;17.80;;;5.00;66.60;;;;;;5052302;28;20151;-79
2022/01/09 04:33:22;;;;;;;26.35;19.02;;;5.00;66.60;;;;;;5052301;28;20036;-79
2022/01/09 04:35:47;;;;;;;28.58;18.50;;;5.10;66.60;;;;;;5052649;28;20033;-79
2022/01/09 04:38:13;;;;;;;24.98;17.23;;;5.10;66.40;;;;;;5045948;28;20041;-79
2022/01/09 04:40:39;;;;;;;23.42;16.08;;;5.10;66.00;;;;;;5034273;28;20056;-79
2022/01/09 04:43:07;;;;;;;23.05;16.17;;;5.10;65.50;;;;;;5034289;28;20041;-79
2022/01/09 04:45:33;;;;;;;22.10;15.88;;;5.10;65.40;;;;;;5051971;28;20056;-78
2022/01/09 04:48:05;;;;;;;24.15;16.60;;;5.20;65.30;;;;;;5052893;28;20449;-79
2022/01/09 04:50:34;;;;;;;22.75;15.32;;;5.20;65.00;;;;;;5046615;28;20029;-79
2022/01/09 04:53:06;;;;;;;22.05;15.43;;;5.20;64.50;;;;;;5052237;28;20037;-79
2022/01/09 04:55:35;;;;;;;24.00;15.90;;;5.20;64.20;;;;;;5052140;28;20045;-79
2022/01/09 04:58:01;;;;;;;23.65;15.25;;;5.20;63.80;;;;;;5049351;28;20033;-79
2022/01/09 05:00:27;;;;;;;21.67;15.20;;;5.20;63.60;;;;;;5052361;28;20400;-79
2022/01/09 05:02:53;;;;;;;20.85;14.60;;;5.20;63.50;;;;;;5052445;28;20087;-78
2022/01/09 05:05:19;;;;;;;18.42;13.40;;;5.20;63.40;;;;;;5051740;28;20048;-78
2022/01/09 05:07:44;;;;;;;18.67;13.95;;;5.20;63.20;;;;;;5052199;28;20033;-79
2022/01/09 05:10:11;;;;;;;21.30;13.40;;;5.20;63.50;;;;;;5051027;28;20450;-79
2022/01/09 05:12:37;;;;;;;19.20;13.90;;;5.30;63.20;;;;;;5051528;28;20468;-80
2022/01/09 05:15:05;;;;;;;19.27;13.70;;;5.30;63.20;;;;;;5050175;28;20071;-80
2022/01/09 05:17:30;;;;;;;21.38;14.02;;;5.30;62.80;;;;;;5044261;28;20037;-79
2022/01/09 05:19:59;;;;;;;20.45;13.55;;;5.40;62.50;;;;;;5052008;28;20095;-79
2022/01/09 05:22:28;;;;;;;19.08;14.27;;;5.30;62.30;;;;;;5051437;28;20061;-79
2022/01/09 05:24:58;;;;;;;16.60;11.48;;;5.30;61.70;;;;;;5033911;28;20130;-79
2022/01/09 05:27:24;;;;;;;19.83;12.90;;;5.30;62.20;;;;;;5034004;28;20144;-78
2022/01/09 05:29:50;;;;;;;18.98;12.15;;;5.30;62.00;;;;;;5052001;28;20090;-79
2022/01/09 05:32:16;;;;;;;19.23;11.93;;;5.40;61.60;;;;;;5047353;28;20037;-79
2022/01/09 05:34:42;;;;;;;18.13;11.93;;;5.40;61.50;;;;;;5052221;28;20033;-79
2022/01/09 05:37:07;;;;;;;15.80;11.20;;;5.40;61.30;;;;;;5051102;28;20523;-79
2022/01/09 05:39:34;;;;;;;13.90;10.20;;;5.40;61.90;;;;;;5049317;28;20423;-79
2022/01/09 05:42:02;;;;;;;13.65;10.27;;;5.40;61.30;;;;;;5051808;28;20067;-79
2022/01/09 05:44:28;;;;;;;15.57;10.02;;;5.50;61.30;;;;;;5049668;28;20110;-79
2022/01/09 05:46:53;;;;;;;13.60;10.07;;;5.50;61.20;;;;;;5052418;28;20088;-79
2022/01/09 05:49:19;;;;;;;14.88;10.30;;;5.50;61.20;;;;;;5051276;28;20076;-80
2022/01/09 05:51:45;;;;;;;14.75;10.52;;;5.50;61.40;;;;;;5051706;28;20084;-79
2022/01/09 05:54:10;;;;;;;14.63;9.68;;;5.50;61.30;;;;;;5034020;28;20041;-79
2022/01/09 05:56:36;;;;;;;14.50;9.13;;;5.60;61.00;;;;;;5051899;28;20481;-78
2022/01/09 05:59:02;;;;;;;12.30;8.73;;;5.50;60.20;;;;;;5051733;28;20037;-78
2022/01/09 06:01:27;;;;;;;13.05;9.07;;;5.50;60.40;;;;;;5051987;28;20037;-80
2022/01/09 06:03:53;;;;;;;11.98;8.60;;;5.50;60.30;;;;;;5051530;28;20064;-80
2022/01/09 06:06:19;;;;;;;12.85;8.60;;;5.60;60.50;;;;;;5050990;28;20048;-80
2022/01/09 06:08:45;;;;;;;11.98;8.48;;;5.60;60.30;;;;;;5051886;28;20521;-83
2022/01/09 06:11:11;;;;;;;11.68;9.30;;;5.50;59.90;;;;;;5045039;28;20103;-83
2022/01/09 06:13:36;;;;;;;16.65;11.75;;;5.50;60.00;;;;;;5032417;28;20063;-82
2022/01/09 06:16:03;;;;;;;17.27;12.13;;;5.50;59.80;;;;;;5033715;28;20065;-82
2022/01/09 06:18:30;;;;;;;14.50;11.10;;;5.40;59.40;;;;;;5051639;28;20033;-82
2022/01/09 06:20:55;;;;;;;16.02;11.70;;;5.40;60.00;;;;;;5051853;28;20119;-81
2022/01/09 06:23:21;;;;;;;15.60;11.80;;;5.30;60.00;;;;;;5043891;28;20131;-83
2022/01/09 06:25:51;;;;;;;15.43;11.15;;;5.40;60.10;;;;;;5033493;28;20041;-83
2022/01/09 06:28:17;;;;;;;15.77;10.48;;;5.40;60.20;;;;;;5055939;28;20385;-82
2022/01/09 06:30:43;;;;;;;17.65;11.45;;;5.40;60.30;;;;;;5050967;28;20033;-81
2022/01/09 06:33:10;;;;;;;15.38;11.48;;;5.40;60.30;;;;;;5055528;28;20135;-81
2022/01/09 06:35:36;;;;;;;21.20;11.68;;;5.50;60.30;;;;;;5056202;28;20036;-82
2022/01/09 06:38:02;;;;;;;12.77;9.63;;;5.50;60.10;;;;;;5055077;28;20040;-81
2022/01/09 06:40:28;;;;;;;13.35;9.48;;;5.50;59.80;;;;;;5047515;28;20515;-82
2022/01/09 06:42:53;;;;;;;15.75;9.77;;;5.60;59.60;;;;;;5054107;28;20040;-82
2022/01/09 06:45:21;;;;;;;12.70;9.32;;;5.60;59.60;;;;;;5055523;28;20519;-82
2022/01/09 06:47:48;;;;;;;10.50;7.63;;;5.60;59.60;;;;;;5037528;28;20039;-82
2022/01/09 06:50:15;;;;;;;11.70;8.63;;;5.50;59.30;;;;;;5048482;28;20436;-81
2022/01/09 06:52:41;;;;;;;10.60;7.78;;;5.60;59.30;;;;;;5055447;28;20072;-81
2022/01/09 06:55:08;;;;;;;11.30;8.30;;;5.60;59.10;;;;;;5055330;28;20335;-82
2022/01/09 06:57:34;;;;;;;10.98;7.57;;;5.60;59.10;;;;;;5051606;28;20033;-83
2022/01/09 07:00:00;;;;;;;15.57;11.65;;;5.60;58.80;;;;;;5047864;28;20184;-81
2022/01/09 07:02:26;;;;;;;12.52;9.07;;;5.40;58.10;;;;;;5049496;28;20057;-82
2022/01/09 07:04:52;;;;;;;11.90;9.40;;;5.10;59.50;;;;;;5049460;28;20080;-82
2022/01/09 07:07:18;;;;;;;16.15;11.40;;;5.10;60.00;;;;;;5032282;28;20037;-81
2022/01/09 07:09:43;;;;;;;16.92;12.13;;;5.10;60.50;;;;;;5053955;28;20043;-81
2022/01/09 07:12:09;;;;;;;17.83;11.75;;;5.10;60.70;;;;;;5035977;28;20065;-76
2022/01/09 07:14:37;;;;;;;16.08;10.85;;;5.20;60.80;;;;;;5035748;28;20049;-76
2022/01/09 07:17:03;;;;;;;16.50;11.30;;;5.20;60.90;;;;;;5053772;28;20507;-76
2022/01/09 07:19:29;;;;;;;15.95;10.85;;;5.30;60.90;;;;;;5054047;28;20481;-77
2022/01/09 07:21:55;;;;;;;14.98;9.90;;;5.30;60.60;;;;;;5041790;28;20044;-76
2022/01/09 07:24:20;;;;;;;12.65;9.63;;;5.40;60.80;;;;;;5051983;28;20037;-76
2022/01/09 07:26:46;;;;;;;14.48;10.00;;;5.40;60.70;;;;;;5051285;28;20112;-76
2022/01/09 07:29:12;;;;;;;13.55;9.45;;;5.50;60.60;;;;;;5045787;28;20049;-75
2022/01/09 07:31:38;;;;;;;15.52;10.35;;;5.50;60.10;;;;;;5054528;28;20037;-77
2022/01/09 07:34:04;;;;;;;13.48;9.73;;;5.60;60.30;;;;;;5034630;28;20089;-76
2022/01/09 07:36:29;;;;;;;18.95;9.85;;;5.60;60.20;;;;;;5036330;28;20048;-75
2022/01/09 07:38:55;;;;;;;13.85;10.10;;;5.60;60.10;;;;;;5052661;28;20110;-76
2022/01/09 07:41:21;;;;;;;15.88;10.93;;;5.70;60.00;;;;;;5051337;28;20517;-75
2022/01/09 07:43:47;;;;;;;12.73;9.52;;;5.70;60.10;;;;;;5048743;28;20041;-75
2022/01/09 07:46:13;;;;;;;14.55;10.35;;;5.70;59.80;;;;;;5049619;28;20513;-76
2022/01/09 07:48:39;;;;;;;14.48;10.13;;;5.70;59.70;;;;;;5047710;28;20033;-77
2022/01/09 07:51:05;;;;;;;11.07;8.55;;;5.70;59.10;;;;;;5053127;28;20045;-78
2022/01/09 07:53:32;;;;;;;13.45;9.43;;;5.70;59.90;;;;;;5028233;28;20068;-78
2022/01/09 07:55:58;;;;;;;12.88;9.60;;;5.70;60.10;;;;;;5054116;28;20044;-77
2022/01/09 07:58:23;;;;;;;13.55;10.07;;;5.70;60.20;;;;;;5045564;28;20409;-78
2022/01/09 08:00:49;;;;;;;14.55;9.75;;;5.60;60.10;;;;;;5048939;28;20033;-77
2022/01/09 08:03:15;;;;;;;21.80;15.25;;;5.50;60.80;;;;;;5053849;28;20480;-77
2022/01/09 08:05:41;;;;;;;19.85;14.45;;;5.20;61.30;;;;;;5052629;28;20041;-83
2022/01/09 08:08:07;;;;;;;18.05;12.73;;;5.10;62.50;;;;;;5048323;28;20052;-84
2022/01/09 08:10:33;;;;;;;14.70;10.32;;;4.90;63.10;;;;;;5034545;28;20136;-78
2022/01/09 08:13:00;;;;;;;16.77;9.68;;;5.00;65.40;;;;;;5052492;28;20083;-80
2022/01/09 08:15:27;;;;;;;15.35;10.07;;;5.20;63.50;;;;;;5053442;28;20064;-81
2022/01/09 08:17:54;;;;;;;16.02;10.15;;;5.30;62.80;;;;;;5049755;28;20078;-85
2022/01/09 08:20:20;;;;;;;14.95;10.55;;;5.40;62.70;;;;;;5053152;28;20127;-82
2022/01/09 08:22:47;;;;;;;15.13;9.88;;;5.50;62.50;;;;;;5053110;28;20037;-83
2022/01/09 08:25:14;;;;;;;13.02;9.18;;;5.50;65.80;;;;;;5048698;28;20087;-85
2022/01/09 08:27:42;;;;;;;12.48;9.48;;;5.60;62.80;;;;;;5052083;28;20119;-86
2022/01/09 08:30:09;;;;;;;13.82;9.88;;;5.60;62.00;;;;;;5044357;28;20036;-83
2022/01/09 08:32:35;;;;;;;15.75;11.85;;;5.60;62.30;;;;;;5044520;28;20030;-83
2022/01/09 08:35:01;;;;;;;18.20;12.88;;;5.40;61.10;;;;;;5045862;28;20102;-82
2022/01/09 08:37:27;;;;;;;13.00;10.15;;;5.20;61.30;;;;;;5030666;28;20481;-83
2022/01/09 08:39:53;;;;;;;16.45;11.57;;;5.10;62.20;;;;;;5038482;28;20029;-82
2022/01/09 08:42:18;;;;;;;14.60;10.13;;;5.10;62.60;;;;;;5045989;28;20041;-75
2022/01/09 08:44:44;;;;;;;13.05;9.25;;;4.90;62.30;;;;;;5048200;28;20506;-79
2022/01/09 08:47:10;;;;;;;15.40;10.68;;;4.90;63.30;;;;;;5027735;28;20033;-79
2022/01/09 08:49:36;;;;;;;13.25;8.90;;;4.80;62.80;;;;;;5047812;28;20485;-77
2022/01/09 08:52:03;;;;;;;13.43;9.10;;;4.80;63.40;;;;;;5044734;28;20043;-77
2022/01/09 08:54:30;;;;;;;13.85;9.15;;;4.80;63.50;;;;;;5033271;28;20040;-78
2022/01/09 08:56:55;;;;;;;11.63;8.05;;;4.90;63.50;;;;;;5046532;28;20044;-77
2022/01/09 08:59:22;;;;;;;13.73;9.82;;;5.00;63.50;;;;;;5033485;28;20041;-77
2022/01/09 09:01:48;;;;;;;12.00;8.40;;;5.00;63.90;;;;;;5033589;28;20068;-76
2022/01/09 09:04:14;;;;;;;19.92;8.20;;;5.10;63.90;;;;;;5045669;28;20033;-77
2022/01/09 09:06:40;;;;;;;9.32;6.93;;;5.20;63.60;;;;;;5047773;28;20041;-83
2022/01/09 09:09:07;;;;;;;10.30;7.57;;;5.30;63.50;;;;;;5051805;28;20047;-83
2022/01/09 09:11:33;;;;;;;9.77;7.05;;;5.50;63.20;;;;;;5052561;28;20113;-82
2022/01/09 09:13:59;;;;;;;11.02;7.53;;;5.50;62.00;;;;;;5052630;28;20424;-81
2022/01/09 09:16:24;;;;;;;11.43;7.88;;;5.60;62.60;;;;;;5052296;28;20025;-83
2022/01/09 09:18:50;;;;;;;14.55;8.88;;;5.60;62.60;;;;;;5032391;28;20068;-82
2022/01/09 09:21:20;;;;;;;11.05;8.43;;;5.70;63.00;;;;;;5034786;28;20037;-80
2022/01/09 09:23:45;;;;;;;10.95;8.18;;;5.60;63.30;;;;;;5051065;28;20504;-77
2022/01/09 09:26:12;;;;;;;15.63;11.95;;;5.60;63.50;;;;;;5034857;28;20044;-77
2022/01/09 09:28:38;;;;;;;16.98;10.55;;;5.60;63.90;;;;;;5051835;28;20029;-76
2022/01/09 09:31:04;;;;;;;14.02;10.55;;;5.40;64.10;;;;;;5034107;28;20045;-77
2022/01/09 09:33:30;;;;;;;16.95;11.57;;;5.50;64.20;;;;;;5033970;28;20044;-77
2022/01/09 09:36:00;;;;;;;13.68;10.00;;;5.40;64.50;;;;;;5052549;28;20037;-78
2022/01/09 09:38:26;;;;;;;15.33;9.50;;;5.40;64.30;;;;;;5025392;28;20041;-77
2022/01/09 09:40:52;;;;;;;13.25;10.15;;;5.50;64.30;;;;;;5049836;28;20036;-77
2022/01/09 09:43:20;;;;;;;14.23;9.80;;;5.60;64.40;;;;;;5033125;28;20433;-76
2022/01/09 09:45:46;;;;;;;15.50;10.88;;;5.60;64.60;;;;;;5052515;28;20044;-77
2022/01/09 09:48:11;;;;;;;15.57;10.95;;;5.70;64.60;;;;;;5050398;28;20040;-77
2022/01/09 09:50:38;;;;;;;16.02;10.93;;;5.80;64.60;;;;;;5044085;28;20493;-76
2022/01/09 09:53:05;;;;;;;13.25;10.20;;;5.80;63.90;;;;;;5051134;28;20041;-76
2022/01/09 09:55:31;;;;;;;17.35;11.38;;;5.70;63.90;;;;;;5033766;28;20033;-76
2022/01/09 09:57:57;;;;;;;15.55;10.13;;;5.70;63.90;;;;;;5051929;28;20037;-76
2022/01/09 10:00:24;;;;;;;14.60;10.82;;;5.70;64.00;;;;;;5047698;28;20048;-78
2022/01/09 10:03:01;;;;;;;15.85;12.27;;;5.80;64.20;;;;;;5055784;28;20120;-85
2022/01/09 10:05:32;;;;;;;20.45;12.70;;;5.90;64.20;;;;;;5054862;28;20041;-84
2022/01/09 10:08:15;;;;;;;17.60;12.18;;;5.90;64.20;;;;;;5052473;28;20037;-81
2022/01/09 10:10:41;;;;;;;17.52;13.30;;;5.90;64.30;;;;;;5054037;28;20033;-81
2022/01/09 10:13:08;;;;;;;20.13;13.70;;;6.00;64.40;;;;;;5056000;28;20039;-82
2022/01/09 10:15:55;;;;;;;20.83;13.45;;;6.00;64.40;;;;;;5056124;28;20041;-82
2022/01/09 10:18:56;;;;;;;19.25;12.65;;;6.10;64.50;;;;;;5054962;28;20167;-81
2022/01/09 10:21:26;;;;;;;20.05;13.30;;;6.20;64.40;;;;;;4987790;28;20526;-81
2022/01/09 10:24:11;;;;;;;22.48;14.45;;;6.20;64.30;;;;;;5029059;28;20048;-82
2022/01/09 10:26:48;;;;;;;18.58;13.00;;;6.20;64.60;;;;;;5036438;28;20037;-82
2022/01/09 10:29:14;;;;;;;20.98;14.20;;;6.30;64.70;;;;;;5047472;28;20048;-79
2022/01/09 10:31:49;;;;;;;22.88;15.57;;;6.30;65.00;;;;;;5054998;28;20021;-78
2022/01/09 10:34:18;;;;;;;18.17;14.00;;;6.30;65.60;;;;;;5049804;28;20041;-81
2022/01/09 10:36:51;;;;;;;19.90;14.77;;;6.30;65.00;;;;;;5050732;28;20031;-81
2022/01/09 10:39:36;;;;;;;27.48;19.17;;;6.30;67.10;;;;;;5052743;28;20203;-79
2022/01/09 10:42:03;;;;;;;21.25;15.48;;;6.20;65.70;;;;;;5046285;28;20430;-78
2022/01/09 10:44:39;;;;;;;28.33;19.48;;;6.30;65.80;;;;;;5043052;28;20041;-78
2022/01/09 10:47:12;;;;;;;21.13;14.90;;;6.30;65.60;;;;;;5041440;28;20065;-78
2022/01/09 10:49:49;;;;;;;23.73;16.55;;;6.50;65.60;;;;;;5034643;28;20222;-78
2022/01/09 10:52:38;;;;;;;18.42;13.77;;;6.50;64.80;;;;;;5047926;28;20381;-78
2022/01/09 10:55:06;;;;;;;18.70;13.38;;;6.60;64.70;;;;;;5035787;28;20033;-78
2022/01/09 10:57:34;;;;;;;20.75;15.25;;;6.60;64.60;;;;;;5036281;28;20033;-78
2022/01/09 11:00:08;;;;;;;19.42;13.63;;;6.70;63.20;;;;;;5036546;28;20454;-79
2022/01/09 11:02:33;;;;;;;18.50;13.85;;;6.80;64.00;;;;;;5035658;28;20041;-79
2022/01/09 11:04:59;;;;;;;15.50;11.73;;;6.80;63.30;;;;;;5055362;28;20390;-79
2022/01/09 11:07:25;;;;;;;17.35;13.70;;;6.70;63.50;;;;;;5055087;28;20082;-79
2022/01/09 11:09:52;;;;;;;14.52;12.13;;;6.80;63.20;;;;;;5054305;28;20041;-80
2022/01/09 11:12:20;;;;;;;18.52;13.18;;;6.90;63.20;;;;;;5041474;28;20041;-80
2022/01/09 11:14:49;;;;;;;20.35;13.80;;;6.80;62.90;;;;;;5035349;28;20060;-80
2022/01/09 11:17:16;;;;;;;19.10;13.25;;;6.70;62.50;;;;;;5035449;28;20044;-80
2022/01/09 11:19:43;;;;;;;16.63;12.80;;;6.60;63.20;;;;;;5035111;28;20498;-80
2022/01/09 11:22:12;;;;;;;21.40;14.48;;;6.70;63.80;;;;;;5046040;28;20037;-80
2022/01/09 11:24:56;;;;;;;18.40;13.47;;;6.80;63.70;;;;;;5039667;28;20045;-80
2022/01/09 11:28:04;;;;;;;17.05;12.55;;;6.80;63.20;;;;;;5033932;28;20272;-79
2022/01/09 11:30:56;;;;;;;12.75;10.35;;;6.80;63.30;;;;;;5035508;28;20482;-79
2022/01/09 11:33:25;;;;;;;18.35;12.43;;;6.90;63.20;;;;;;5034695;28;20033;-80
2022/01/09 11:36:18;;;;;;;14.80;10.85;;;6.90;62.00;;;;;;5039910;28;20029;-79
2022/01/09 11:38:59;;;;;;;20.17;12.10;;;6.90;61.90;;;;;;5034926;28;20396;-79
2022/01/09 11:41:27;;;;;;;21.52;15.25;;;6.90;61.60;;;;;;5038976;28;20033;-80
2022/01/09 11:44:00;;;;;;;18.08;14.48;;;6.90;61.70;;;;;;5054439;28;20037;-80
2022/01/09 11:46:29;;;;;;;19.50;14.23;;;6.60;62.00;;;;;;5053923;28;20061;-80
2022/01/09 11:48:54;;;;;;;16.63;13.07;;;6.60;62.60;;;;;;5054246;28;20067;-80
2022/01/09 11:51:25;;;;;;;19.40;15.10;;;6.60;61.90;;;;;;5053972;28;20025;-80
2022/01/09 11:53:56;;;;;;;17.00;12.50;;;6.80;61.30;;;;;;5054037;28;20477;-79
2022/01/09 11:56:40;;;;;;;14.60;10.70;;;6.80;61.40;;;;;;5053622;28;20558;-79
2022/01/09 11:59:24;;;;;;;17.80;13.95;;;6.90;61.60;;;;;;5054686;28;20072;-81
2022/01/09 12:02:03;;;;;;;13.68;10.70;;;7.00;60.10;;;;;;5045663;28;20063;-79
2022/01/09 12:04:32;;;;;;;16.23;11.25;;;7.00;61.00;;;;;;5034806;28;20454;-79
2022/01/09 12:07:07;;;;;;;19.42;11.00;;;7.20;61.30;;;;;;5033456;28;20072;-79
2022/01/09 12:09:37;;;;;;;13.80;10.75;;;7.10;59.80;;;;;;5033931;28;20045;-79
2022/01/09 12:12:03;;;;;;;;;;;7.20;60.20;;;;;;5041574;28;20401;-79
2022/01/09 12:17:34;;;;;;;18.05;11.73;;;7.30;59.20;;;;;;5054239;28;20061;-80
2022/01/09 12:20:12;;;;;;;15.75;11.52;;;7.20;58.20;;;;;;5054299;28;20040;-80
2022/01/09 12:22:48;;;;;;;18.65;12.73;;;7.20;59.20;;;;;;5034390;28;20033;-79
2022/01/09 12:25:26;;;;;;;20.77;13.15;;;7.30;58.50;;;;;;5033723;28;20486;-79
2022/01/09 12:27:54;;;;;;;17.88;11.85;;;7.10;58.20;;;;;;5032625;28;20034;-79
2022/01/09 12:33:15;;;;;;;17.75;13.05;;;7.20;58.90;;;;;;5047324;28;20036;-79
2022/01/09 12:35:47;;;;;;;16.42;12.13;;;7.10;58.20;;;;;;5042623;28;20088;-79
2022/01/09 12:38:17;;;;;;;15.80;11.60;;;7.10;57.90;;;;;;5033919;28;20037;-79
2022/01/09 12:40:44;;;;;;;13.85;10.50;;;6.80;58.70;;;;;;5049541;28;20043;-79
2022/01/09 12:43:11;;;;;;;16.05;10.05;;;6.70;58.00;;;;;;5031495;28;20405;-79
2022/01/09 12:45:44;;;;;;;15.23;10.38;;;6.90;58.80;;;;;;5033890;28;20057;-79
2022/01/09 12:48:27;;;;;;;15.23;11.50;;;7.00;57.90;;;;;;5032493;28;20041;-79